sensor_id;sensor_type;location;lat;lon;timestamp;P1;durP1;ratioP1;P2;durP2;ratioP2
41799;SDS011;27468;47.460;19.034;2023-03-31T00:01:23;29.60;;;16.45;;
41799;SDS011;27468;47.460;19.034;2023-03-31T00:03:49;26.80;;;16.67;;
41799;SDS011;27468;47.460;19.034;2023-03-31T00:06:14;26.95;;;16.65;;
41799;SDS011;27468;47.460;19.034;2023-03-31T00:08:43;27.90;;;15.40;;
41799;SDS011;27468;47.460;19.034;2023-03-31T00:11:09;24.83;;;14.82;;
41799;SDS011;27468;47.460;19.034;2023-03-31T00:13:36;25.20;;;14.82;;
41799;SDS011;27468;47.460;19.034;2023-03-31T00:16:03;26.33;;;15.10;;
41799;SDS011;27468;47.460;19.034;2023-03-31T00:18:31;24.92;;;15.57;;
41799;SDS011;27468;47.460;19.034;2023-03-31T00:21:08;25.65;;;15.50;;
41799;SDS011;27468;47.460;19.034;2023-03-31T00:23:39;22.60;;;14.60;;
41799;SDS011;27468;47.460;19.034;2023-03-31T00:26:05;25.83;;;15.10;;
41799;SDS011;27468;47.460;19.034;2023-03-31T00:28:31;23.88;;;15.10;;
41799;SDS011;27468;47.460;19.034;2023-03-31T00:31:00;25.95;;;15.18;;
41799;SDS011;27468;47.460;19.034;2023-03-31T00:33:27;26.70;;;15.18;;
41799;SDS011;27468;47.460;19.034;2023-03-31T00:35:53;27.40;;;15.43;;
41799;SDS011;27468;47.460;19.034;2023-03-31T00:38:19;27.80;;;15.70;;
41799;SDS011;27468;47.460;19.034;2023-03-31T00:40:46;29.10;;;16.15;;
41799;SDS011;27468;47.460;19.034;2023-03-31T00:43:31;30.60;;;16.00;;
41799;SDS011;27468;47.460;19.034;2023-03-31T00:48:49;29.42;;;16.88;;
41799;SDS011;27468;47.460;19.034;2023-03-31T00:51:18;33.05;;;17.02;;
41799;SDS011;27468;47.460;19.034;2023-03-31T00:53:50;32.58;;;16.88;;
41799;SDS011;27468;47.460;19.034;2023-03-31T00:56:21;32.10;;;17.35;;
41799;SDS011;27468;47.460;19.034;2023-03-31T00:58:50;33.35;;;17.83;;
41799;SDS011;27468;47.460;19.034;2023-03-31T01:01:19;35.00;;;18.63;;
41799;SDS011;27468;47.460;19.034;2023-03-31T01:03:48;34.85;;;17.70;;
41799;SDS011;27468;47.460;19.034;2023-03-31T01:06:15;37.35;;;18.48;;
41799;SDS011;27468;47.460;19.034;2023-03-31T01:08:44;35.85;;;17.77;;
41799;SDS011;27468;47.460;19.034;2023-03-31T01:11:13;34.17;;;17.95;;
41799;SDS011;27468;47.460;19.034;2023-03-31T01:13:40;37.17;;;18.20;;
41799;SDS011;27468;47.460;19.034;2023-03-31T01:16:07;39.30;;;19.48;;
41799;SDS011;27468;47.460;19.034;2023-03-31T01:18:34;33.33;;;17.60;;
41799;SDS011;27468;47.460;19.034;2023-03-31T01:32:15;40.85;;;19.77;;
41799;SDS011;27468;47.460;19.034;2023-03-31T01:37:41;39.30;;;18.45;;
41799;SDS011;27468;47.460;19.034;2023-03-31T01:42:49;31.55;;;16.50;;
41799;SDS011;27468;47.460;19.034;2023-03-31T01:45:35;28.67;;;14.38;;
41799;SDS011;27468;47.460;19.034;2023-03-31T01:48:12;20.52;;;12.35;;
41799;SDS011;27468;47.460;19.034;2023-03-31T01:50:44;20.98;;;11.57;;
41799;SDS011;27468;47.460;19.034;2023-03-31T01:58:43;21.63;;;11.55;;
41799;SDS011;27468;47.460;19.034;2023-03-31T02:01:22;18.65;;;10.32;;
41799;SDS011;27468;47.460;19.034;2023-03-31T02:03:55;17.88;;;10.43;;
41799;SDS011;27468;47.460;19.034;2023-03-31T02:06:28;19.77;;;10.50;;
41799;SDS011;27468;47.460;19.034;2023-03-31T02:09:01;16.88;;;10.25;;
41799;SDS011;27468;47.460;19.034;2023-03-31T02:11:30;15.88;;;8.88;;
41799;SDS011;27468;47.460;19.034;2023-03-31T02:13:58;15.25;;;9.10;;
41799;SDS011;27468;47.460;19.034;2023-03-31T02:16:26;11.88;;;8.30;;
41799;SDS011;27468;47.460;19.034;2023-03-31T02:18:54;15.02;;;8.43;;
41799;SDS011;27468;47.460;19.034;2023-03-31T02:21:27;13.15;;;7.88;;
41799;SDS011;27468;47.460;19.034;2023-03-31T02:23:56;14.05;;;8.60;;
41799;SDS011;27468;47.460;19.034;2023-03-31T02:26:25;12.48;;;7.45;;
41799;SDS011;27468;47.460;19.034;2023-03-31T02:28:55;11.07;;;7.15;;
41799;SDS011;27468;47.460;19.034;2023-03-31T02:34:10;11.55;;;7.72;;
41799;SDS011;27468;47.460;19.034;2023-03-31T02:36:36;12.23;;;7.93;;
41799;SDS011;27468;47.460;19.034;2023-03-31T02:39:04;11.90;;;7.78;;
41799;SDS011;27468;47.460;19.034;2023-03-31T02:41:33;14.13;;;8.85;;
41799;SDS011;27468;47.460;19.034;2023-03-31T02:43:59;11.18;;;7.95;;
41799;SDS011;27468;47.460;19.034;2023-03-31T02:46:25;13.27;;;8.38;;
41799;SDS011;27468;47.460;19.034;2023-03-31T02:48:55;15.13;;;8.88;;
41799;SDS011;27468;47.460;19.034;2023-03-31T02:54:19;14.38;;;8.63;;
41799;SDS011;27468;47.460;19.034;2023-03-31T03:08:51;16.65;;;9.38;;
41799;SDS011;27468;47.460;19.034;2023-03-31T03:19:59;12.27;;;7.30;;
41799;SDS011;27468;47.460;19.034;2023-03-31T03:22:26;12.77;;;7.88;;
41799;SDS011;27468;47.460;19.034;2023-03-31T03:24:51;15.07;;;8.82;;
41799;SDS011;27468;47.460;19.034;2023-03-31T03:27:18;15.38;;;9.70;;
41799;SDS011;27468;47.460;19.034;2023-03-31T03:29:46;14.68;;;8.80;;
41799;SDS011;27468;47.460;19.034;2023-03-31T03:32:12;16.77;;;9.15;;
41799;SDS011;27468;47.460;19.034;2023-03-31T03:34:37;18.00;;;10.32;;
41799;SDS011;27468;47.460;19.034;2023-03-31T03:37:03;16.80;;;9.95;;
41799;SDS011;27468;47.460;19.034;2023-03-31T03:39:28;17.15;;;9.77;;
41799;SDS011;27468;47.460;19.034;2023-03-31T03:41:54;17.85;;;10.55;;
41799;SDS011;27468;47.460;19.034;2023-03-31T03:44:19;18.63;;;10.73;;
41799;SDS011;27468;47.460;19.034;2023-03-31T03:46:45;17.08;;;10.13;;
41799;SDS011;27468;47.460;19.034;2023-03-31T03:49:10;19.27;;;10.93;;
41799;SDS011;27468;47.460;19.034;2023-03-31T03:51:36;18.70;;;11.20;;
41799;SDS011;27468;47.460;19.034;2023-03-31T03:54:01;21.10;;;10.77;;
41799;SDS011;27468;47.460;19.034;2023-03-31T03:56:27;20.77;;;11.70;;
41799;SDS011;27468;47.460;19.034;2023-03-31T03:58:52;18.83;;;10.60;;
41799;SDS011;27468;47.460;19.034;2023-03-31T04:01:18;20.05;;;11.15;;
41799;SDS011;27468;47.460;19.034;2023-03-31T04:03:43;19.75;;;10.98;;
41799;SDS011;27468;47.460;19.034;2023-03-31T04:06:09;19.63;;;10.98;;
41799;SDS011;27468;47.460;19.034;2023-03-31T04:08:34;19.52;;;10.90;;
41799;SDS011;27468;47.460;19.034;2023-03-31T04:11:00;20.55;;;11.40;;
41799;SDS011;27468;47.460;19.034;2023-03-31T04:13:26;21.38;;;10.63;;
41799;SDS011;27468;47.460;19.034;2023-03-31T04:15:51;19.13;;;10.95;;
41799;SDS011;27468;47.460;19.034;2023-03-31T04:18:17;17.90;;;11.00;;
41799;SDS011;27468;47.460;19.034;2023-03-31T04:20:49;20.23;;;11.13;;
41799;SDS011;27468;47.460;19.034;2023-03-31T04:23:19;22.75;;;11.30;;
41799;SDS011;27468;47.460;19.034;2023-03-31T04:25:47;22.10;;;11.50;;
41799;SDS011;27468;47.460;19.034;2023-03-31T04:28:14;21.95;;;11.30;;
41799;SDS011;27468;47.460;19.034;2023-03-31T04:30:39;23.98;;;11.85;;
41799;SDS011;27468;47.460;19.034;2023-03-31T04:33:05;22.75;;;12.00;;
41799;SDS011;27468;47.460;19.034;2023-03-31T04:35:30;22.70;;;11.93;;
41799;SDS011;27468;47.460;19.034;2023-03-31T04:38:12;22.90;;;11.50;;
41799;SDS011;27468;47.460;19.034;2023-03-31T04:40:37;23.20;;;12.15;;
41799;SDS011;27468;47.460;19.034;2023-03-31T04:43:05;23.92;;;12.77;;
41799;SDS011;27468;47.460;19.034;2023-03-31T04:45:30;29.08;;;13.00;;
41799;SDS011;27468;47.460;19.034;2023-03-31T04:47:56;26.33;;;13.13;;
41799;SDS011;27468;47.460;19.034;2023-03-31T04:50:21;27.02;;;13.18;;
41799;SDS011;27468;47.460;19.034;2023-03-31T04:52:47;29.50;;;13.98;;
41799;SDS011;27468;47.460;19.034;2023-03-31T04:55:12;26.25;;;13.20;;
41799;SDS011;27468;47.460;19.034;2023-03-31T04:57:37;27.40;;;13.98;;
41799;SDS011;27468;47.460;19.034;2023-03-31T05:00:03;27.00;;;13.48;;
41799;SDS011;27468;47.460;19.034;2023-03-31T05:02:31;27.90;;;14.30;;
41799;SDS011;27468;47.460;19.034;2023-03-31T05:04:57;27.08;;;14.02;;
41799;SDS011;27468;47.460;19.034;2023-03-31T05:07:22;27.52;;;14.20;;
41799;SDS011;27468;47.460;19.034;2023-03-31T05:09:48;24.95;;;13.38;;
41799;SDS011;27468;47.460;19.034;2023-03-31T05:12:13;27.48;;;14.05;;
41799;SDS011;27468;47.460;19.034;2023-03-31T05:14:39;25.20;;;13.68;;
41799;SDS011;27468;47.460;19.034;2023-03-31T05:17:04;26.48;;;14.07;;
41799;SDS011;27468;47.460;19.034;2023-03-31T05:19:30;25.98;;;13.35;;
41799;SDS011;27468;47.460;19.034;2023-03-31T05:21:55;25.95;;;12.63;;
41799;SDS011;27468;47.460;19.034;2023-03-31T05:24:21;25.27;;;12.73;;
41799;SDS011;27468;47.460;19.034;2023-03-31T05:26:46;22.73;;;12.18;;
41799;SDS011;27468;47.460;19.034;2023-03-31T05:29:16;19.73;;;11.90;;
41799;SDS011;27468;47.460;19.034;2023-03-31T05:31:42;20.85;;;11.20;;
41799;SDS011;27468;47.460;19.034;2023-03-31T05:34:08;21.17;;;12.10;;
41799;SDS011;27468;47.460;19.034;2023-03-31T05:36:33;20.00;;;11.77;;
41799;SDS011;27468;47.460;19.034;2023-03-31T05:38:59;20.67;;;10.80;;
41799;SDS011;27468;47.460;19.034;2023-03-31T05:41:24;18.95;;;11.32;;
41799;SDS011;27468;47.460;19.034;2023-03-31T05:43:50;18.95;;;10.38;;
41799;SDS011;27468;47.460;19.034;2023-03-31T05:46:15;16.33;;;9.68;;
41799;SDS011;27468;47.460;19.034;2023-03-31T05:48:42;15.38;;;9.45;;
41799;SDS011;27468;47.460;19.034;2023-03-31T05:51:08;14.38;;;9.00;;
41799;SDS011;27468;47.460;19.034;2023-03-31T05:53:34;14.00;;;8.25;;
41799;SDS011;27468;47.460;19.034;2023-03-31T05:56:00;11.63;;;7.75;;
41799;SDS011;27468;47.460;19.034;2023-03-31T05:58:28;9.57;;;7.07;;
41799;SDS011;27468;47.460;19.034;2023-03-31T06:01:00;9.48;;;6.60;;
41799;SDS011;27468;47.460;19.034;2023-03-31T06:03:31;9.32;;;6.70;;
41799;SDS011;27468;47.460;19.034;2023-03-31T06:05:57;10.32;;;6.15;;
41799;SDS011;27468;47.460;19.034;2023-03-31T06:08:23;10.52;;;6.18;;
41799;SDS011;27468;47.460;19.034;2023-03-31T06:10:49;9.18;;;6.00;;
41799;SDS011;27468;47.460;19.034;2023-03-31T06:13:14;8.85;;;5.45;;
41799;SDS011;27468;47.460;19.034;2023-03-31T06:15:40;8.02;;;5.75;;
41799;SDS011;27468;47.460;19.034;2023-03-31T06:18:06;6.20;;;5.25;;
41799;SDS011;27468;47.460;19.034;2023-03-31T06:20:34;8.55;;;5.25;;
41799;SDS011;27468;47.460;19.034;2023-03-31T06:23:01;11.15;;;5.50;;
41799;SDS011;27468;47.460;19.034;2023-03-31T06:25:26;8.25;;;5.00;;
41799;SDS011;27468;47.460;19.034;2023-03-31T06:27:52;7.05;;;4.80;;
41799;SDS011;27468;47.460;19.034;2023-03-31T06:30:17;6.97;;;5.18;;
41799;SDS011;27468;47.460;19.034;2023-03-31T06:32:43;7.65;;;5.30;;
41799;SDS011;27468;47.460;19.034;2023-03-31T06:35:08;7.68;;;4.35;;
41799;SDS011;27468;47.460;19.034;2023-03-31T06:37:34;7.35;;;4.45;;
41799;SDS011;27468;47.460;19.034;2023-03-31T06:39:59;8.90;;;4.80;;
41799;SDS011;27468;47.460;19.034;2023-03-31T06:42:25;10.40;;;5.32;;
41799;SDS011;27468;47.460;19.034;2023-03-31T06:44:50;11.70;;;5.72;;
41799;SDS011;27468;47.460;19.034;2023-03-31T06:47:16;9.02;;;4.78;;
41799;SDS011;27468;47.460;19.034;2023-03-31T06:49:41;6.90;;;4.20;;
41799;SDS011;27468;47.460;19.034;2023-03-31T06:52:06;7.47;;;4.30;;
41799;SDS011;27468;47.460;19.034;2023-03-31T06:54:32;6.72;;;4.97;;
41799;SDS011;27468;47.460;19.034;2023-03-31T06:56:57;6.93;;;4.47;;
41799;SDS011;27468;47.460;19.034;2023-03-31T06:59:23;7.47;;;4.25;;
41799;SDS011;27468;47.460;19.034;2023-03-31T07:01:48;6.72;;;3.35;;
41799;SDS011;27468;47.460;19.034;2023-03-31T07:04:14;7.03;;;4.13;;
41799;SDS011;27468;47.460;19.034;2023-03-31T07:06:40;8.13;;;4.50;;
41799;SDS011;27468;47.460;19.034;2023-03-31T07:09:05;8.85;;;4.72;;
41799;SDS011;27468;47.460;19.034;2023-03-31T07:11:31;7.80;;;4.50;;
41799;SDS011;27468;47.460;19.034;2023-03-31T07:13:56;5.57;;;3.55;;
41799;SDS011;27468;47.460;19.034;2023-03-31T07:16:21;5.93;;;3.40;;
41799;SDS011;27468;47.460;19.034;2023-03-31T07:18:47;6.28;;;3.50;;
41799;SDS011;27468;47.460;19.034;2023-03-31T07:21:14;5.18;;;3.50;;
41799;SDS011;27468;47.460;19.034;2023-03-31T07:23:40;5.38;;;3.40;;
41799;SDS011;27468;47.460;19.034;2023-03-31T07:26:05;5.63;;;3.40;;
41799;SDS011;27468;47.460;19.034;2023-03-31T07:28:31;3.92;;;3.17;;
41799;SDS011;27468;47.460;19.034;2023-03-31T07:30:57;5.80;;;3.45;;
41799;SDS011;27468;47.460;19.034;2023-03-31T07:33:22;5.22;;;3.25;;
41799;SDS011;27468;47.460;19.034;2023-03-31T07:35:48;5.70;;;4.05;;
41799;SDS011;27468;47.460;19.034;2023-03-31T07:38:13;9.18;;;5.85;;
41799;SDS011;27468;47.460;19.034;2023-03-31T07:40:39;9.75;;;6.32;;
41799;SDS011;27468;47.460;19.034;2023-03-31T07:43:05;8.63;;;6.45;;
41799;SDS011;27468;47.460;19.034;2023-03-31T07:45:31;7.95;;;6.80;;
41799;SDS011;27468;47.460;19.034;2023-03-31T07:47:57;8.18;;;6.03;;
41799;SDS011;27468;47.460;19.034;2023-03-31T07:50:23;7.47;;;5.63;;
41799;SDS011;27468;47.460;19.034;2023-03-31T07:52:49;8.65;;;5.43;;
41799;SDS011;27468;47.460;19.034;2023-03-31T07:55:15;8.20;;;5.13;;
41799;SDS011;27468;47.460;19.034;2023-03-31T07:57:41;6.97;;;5.13;;
41799;SDS011;27468;47.460;19.034;2023-03-31T08:00:07;8.43;;;5.15;;
41799;SDS011;27468;47.460;19.034;2023-03-31T08:02:36;7.43;;;4.70;;
41799;SDS011;27468;47.460;19.034;2023-03-31T08:05:02;7.40;;;4.90;;
41799;SDS011;27468;47.460;19.034;2023-03-31T08:07:28;6.18;;;5.57;;
41799;SDS011;27468;47.460;19.034;2023-03-31T08:09:55;7.43;;;4.90;;
41799;SDS011;27468;47.460;19.034;2023-03-31T08:12:21;7.28;;;4.53;;
41799;SDS011;27468;47.460;19.034;2023-03-31T08:14:46;6.53;;;4.63;;
41799;SDS011;27468;47.460;19.034;2023-03-31T08:17:12;6.15;;;4.57;;
41799;SDS011;27468;47.460;19.034;2023-03-31T08:19:37;7.53;;;4.30;;
41799;SDS011;27468;47.460;19.034;2023-03-31T08:22:03;5.55;;;4.57;;
41799;SDS011;27468;47.460;19.034;2023-03-31T08:24:28;8.45;;;4.50;;
41799;SDS011;27468;47.460;19.034;2023-03-31T08:26:53;9.13;;;4.63;;
41799;SDS011;27468;47.460;19.034;2023-03-31T08:29:19;6.85;;;4.60;;
41799;SDS011;27468;47.460;19.034;2023-03-31T08:31:44;6.50;;;4.13;;
41799;SDS011;27468;47.460;19.034;2023-03-31T08:34:10;5.57;;;4.50;;
41799;SDS011;27468;47.460;19.034;2023-03-31T08:36:35;7.70;;;3.78;;
41799;SDS011;27468;47.460;19.034;2023-03-31T08:39:01;6.97;;;4.20;;
41799;SDS011;27468;47.460;19.034;2023-03-31T08:43:52;6.93;;;4.30;;
41799;SDS011;27468;47.460;19.034;2023-03-31T08:46:20;5.85;;;4.38;;
41799;SDS011;27468;47.460;19.034;2023-03-31T08:48:55;6.65;;;4.38;;
41799;SDS011;27468;47.460;19.034;2023-03-31T08:51:24;6.85;;;4.82;;
41799;SDS011;27468;47.460;19.034;2023-03-31T08:56:32;6.13;;;4.25;;
41799;SDS011;27468;47.460;19.034;2023-03-31T08:59:03;6.18;;;4.40;;
41799;SDS011;27468;47.460;19.034;2023-03-31T09:04:24;5.32;;;4.43;;
41799;SDS011;27468;47.460;19.034;2023-03-31T09:17:53;5.30;;;4.32;;
41799;SDS011;27468;47.460;19.034;2023-03-31T09:20:36;6.07;;;4.20;;
41799;SDS011;27468;47.460;19.034;2023-03-31T09:26:00;5.32;;;4.20;;
41799;SDS011;27468;47.460;19.034;2023-03-31T09:28:33;7.20;;;4.20;;
41799;SDS011;27468;47.460;19.034;2023-03-31T09:31:03;4.25;;;3.30;;
41799;SDS011;27468;47.460;19.034;2023-03-31T09:33:42;5.72;;;3.80;;
41799;SDS011;27468;47.460;19.034;2023-03-31T09:36:16;4.38;;;2.80;;
41799;SDS011;27468;47.460;19.034;2023-03-31T09:38:44;4.28;;;2.97;;
41799;SDS011;27468;47.460;19.034;2023-03-31T09:41:10;3.65;;;2.92;;
41799;SDS011;27468;47.460;19.034;2023-03-31T09:43:39;4.70;;;2.72;;
41799;SDS011;27468;47.460;19.034;2023-03-31T09:46:16;6.07;;;2.90;;
41799;SDS011;27468;47.460;19.034;2023-03-31T09:48:53;2.97;;;2.47;;
41799;SDS011;27468;47.460;19.034;2023-03-31T09:51:25;4.07;;;2.50;;
41799;SDS011;27468;47.460;19.034;2023-03-31T09:56:48;3.03;;;2.53;;
41799;SDS011;27468;47.460;19.034;2023-03-31T09:59:29;4.32;;;3.28;;
41799;SDS011;27468;47.460;19.034;2023-03-31T10:01:56;3.83;;;3.08;;
41799;SDS011;27468;47.460;19.034;2023-03-31T10:04:27;4.18;;;2.70;;
41799;SDS011;27468;47.460;19.034;2023-03-31T10:06:56;5.07;;;2.92;;
41799;SDS011;27468;47.460;19.034;2023-03-31T10:09:27;4.85;;;2.72;;
41799;SDS011;27468;47.460;19.034;2023-03-31T10:14:26;5.45;;;3.33;;
41799;SDS011;27468;47.460;19.034;2023-03-31T10:16:57;3.22;;;2.55;;
41799;SDS011;27468;47.460;19.034;2023-03-31T10:19:33;3.97;;;2.80;;
41799;SDS011;27468;47.460;19.034;2023-03-31T10:24:45;3.90;;;2.50;;
41799;SDS011;27468;47.460;19.034;2023-03-31T10:29:51;3.65;;;2.05;;
41799;SDS011;27468;47.460;19.034;2023-03-31T10:32:31;2.67;;;2.28;;
41799;SDS011;27468;47.460;19.034;2023-03-31T10:35:06;3.45;;;2.58;;
41799;SDS011;27468;47.460;19.034;2023-03-31T10:38:00;3.28;;;2.40;;
41799;SDS011;27468;47.460;19.034;2023-03-31T10:40:29;3.47;;;2.40;;
41799;SDS011;27468;47.460;19.034;2023-03-31T10:43:04;3.92;;;3.33;;
41799;SDS011;27468;47.460;19.034;2023-03-31T10:45:40;4.70;;;3.40;;
41799;SDS011;27468;47.460;19.034;2023-03-31T10:50:54;5.03;;;3.40;;
41799;SDS011;27468;47.460;19.034;2023-03-31T10:53:23;4.32;;;3.17;;
41799;SDS011;27468;47.460;19.034;2023-03-31T11:06:32;5.38;;;2.78;;
41799;SDS011;27468;47.460;19.034;2023-03-31T11:22:40;5.57;;;3.20;;
41799;SDS011;27468;47.460;19.034;2023-03-31T11:30:58;4.50;;;2.60;;
41799;SDS011;27468;47.460;19.034;2023-03-31T11:36:27;5.25;;;2.88;;
41799;SDS011;27468;47.460;19.034;2023-03-31T11:42:26;2.95;;;2.40;;
41799;SDS011;27468;47.460;19.034;2023-03-31T11:45:00;3.30;;;2.70;;
41799;SDS011;27468;47.460;19.034;2023-03-31T11:47:35;4.55;;;3.22;;
41799;SDS011;27468;47.460;19.034;2023-03-31T11:50:08;3.85;;;2.50;;
41799;SDS011;27468;47.460;19.034;2023-03-31T11:52:37;4.07;;;2.20;;
41799;SDS011;27468;47.460;19.034;2023-03-31T11:57:40;4.93;;;2.53;;
41799;SDS011;27468;47.460;19.034;2023-03-31T12:05:26;3.47;;;2.45;;
41799;SDS011;27468;47.460;19.034;2023-03-31T12:10:38;3.55;;;2.92;;
41799;SDS011;27468;47.460;19.034;2023-03-31T12:16:16;3.78;;;2.42;;
41799;SDS011;27468;47.460;19.034;2023-03-31T12:41:31;3.63;;;2.60;;
41799;SDS011;27468;47.460;19.034;2023-03-31T12:52:04;5.38;;;2.78;;
41799;SDS011;27468;47.460;19.034;2023-03-31T12:57:24;4.30;;;2.50;;
41799;SDS011;27468;47.460;19.034;2023-03-31T13:02:46;4.60;;;3.15;;
41799;SDS011;27468;47.460;19.034;2023-03-31T13:08:03;4.57;;;2.90;;
41799;SDS011;27468;47.460;19.034;2023-03-31T13:10:30;4.63;;;3.38;;
41799;SDS011;27468;47.460;19.034;2023-03-31T13:15:26;5.70;;;2.60;;
41799;SDS011;27468;47.460;19.034;2023-03-31T13:17:56;3.30;;;2.60;;
41799;SDS011;27468;47.460;19.034;2023-03-31T13:23:04;6.43;;;2.75;;
41799;SDS011;27468;47.460;19.034;2023-03-31T13:25:47;2.65;;;2.40;;
41799;SDS011;27468;47.460;19.034;2023-03-31T13:36:21;3.58;;;2.10;;
41799;SDS011;27468;47.460;19.034;2023-03-31T13:39:02;4.75;;;2.65;;
41799;SDS011;27468;47.460;19.034;2023-03-31T13:50:00;3.75;;;2.22;;
41799;SDS011;27468;47.460;19.034;2023-03-31T13:53:00;4.35;;;2.17;;
41799;SDS011;27468;47.460;19.034;2023-03-31T14:01:39;4.30;;;1.80;;
41799;SDS011;27468;47.460;19.034;2023-03-31T14:04:17;3.83;;;2.00;;
41799;SDS011;27468;47.460;19.034;2023-03-31T14:09:57;3.58;;;1.80;;
41799;SDS011;27468;47.460;19.034;2023-03-31T14:12:31;4.03;;;1.95;;
41799;SDS011;27468;47.460;19.034;2023-03-31T14:14:56;2.63;;;1.90;;
41799;SDS011;27468;47.460;19.034;2023-03-31T14:17:23;3.33;;;1.70;;
41799;SDS011;27468;47.460;19.034;2023-03-31T14:26:04;4.13;;;2.10;;
41799;SDS011;27468;47.460;19.034;2023-03-31T14:28:51;4.53;;;2.00;;
41799;SDS011;27468;47.460;19.034;2023-03-31T14:31:40;3.33;;;1.85;;
41799;SDS011;27468;47.460;19.034;2023-03-31T14:34:36;3.15;;;1.80;;
41799;SDS011;27468;47.460;19.034;2023-03-31T14:37:10;3.20;;;1.60;;
41799;SDS011;27468;47.460;19.034;2023-03-31T14:39:43;3.80;;;1.98;;
41799;SDS011;27468;47.460;19.034;2023-03-31T14:42:13;3.30;;;2.10;;
41799;SDS011;27468;47.460;19.034;2023-03-31T14:44:42;5.72;;;2.08;;
41799;SDS011;27468;47.460;19.034;2023-03-31T14:47:15;4.75;;;1.90;;
41799;SDS011;27468;47.460;19.034;2023-03-31T14:49:45;3.15;;;1.98;;
41799;SDS011;27468;47.460;19.034;2023-03-31T14:52:16;3.92;;;2.10;;
41799;SDS011;27468;47.460;19.034;2023-03-31T14:54:46;4.25;;;2.30;;
41799;SDS011;27468;47.460;19.034;2023-03-31T14:57:16;3.80;;;2.17;;
41799;SDS011;27468;47.460;19.034;2023-03-31T14:59:45;5.00;;;2.22;;
41799;SDS011;27468;47.460;19.034;2023-03-31T15:02:48;4.43;;;2.28;;
41799;SDS011;27468;47.460;19.034;2023-03-31T15:05:08;4.78;;;2.00;;
41799;SDS011;27468;47.460;19.034;2023-03-31T15:07:55;6.00;;;2.17;;
41799;SDS011;27468;47.460;19.034;2023-03-31T15:10:22;3.92;;;2.42;;
41799;SDS011;27468;47.460;19.034;2023-03-31T15:12:48;5.75;;;2.25;;
41799;SDS011;27468;47.460;19.034;2023-03-31T15:15:21;4.20;;;2.13;;
41799;SDS011;27468;47.460;19.034;2023-03-31T15:17:47;3.53;;;2.33;;
41799;SDS011;27468;47.460;19.034;2023-03-31T15:22:57;3.92;;;2.10;;
41799;SDS011;27468;47.460;19.034;2023-03-31T15:25:24;4.00;;;1.98;;
41799;SDS011;27468;47.460;19.034;2023-03-31T15:27:57;3.80;;;2.10;;
41799;SDS011;27468;47.460;19.034;2023-03-31T15:30:29;4.43;;;2.03;;
41799;SDS011;27468;47.460;19.034;2023-03-31T15:32:55;2.80;;;2.15;;
41799;SDS011;27468;47.460;19.034;2023-03-31T15:37:57;4.03;;;2.30;;
41799;SDS011;27468;47.460;19.034;2023-03-31T15:40:30;4.32;;;2.25;;
41799;SDS011;27468;47.460;19.034;2023-03-31T15:43:04;3.65;;;2.03;;
41799;SDS011;27468;47.460;19.034;2023-03-31T15:50:43;2.95;;;2.10;;
41799;SDS011;27468;47.460;19.034;2023-03-31T15:53:28;4.05;;;2.20;;
41799;SDS011;27468;47.460;19.034;2023-03-31T15:55:58;3.97;;;2.20;;
41799;SDS011;27468;47.460;19.034;2023-03-31T16:01:20;3.35;;;2.10;;
41799;SDS011;27468;47.460;19.034;2023-03-31T16:03:47;4.05;;;1.92;;
41799;SDS011;27468;47.460;19.034;2023-03-31T16:06:19;3.67;;;2.10;;
41799;SDS011;27468;47.460;19.034;2023-03-31T16:09:03;3.95;;;2.13;;
41799;SDS011;27468;47.460;19.034;2023-03-31T16:11:42;2.47;;;1.63;;
41799;SDS011;27468;47.460;19.034;2023-03-31T16:17:06;3.10;;;1.80;;
41799;SDS011;27468;47.460;19.034;2023-03-31T16:19:42;2.33;;;1.65;;
41799;SDS011;27468;47.460;19.034;2023-03-31T16:22:18;2.60;;;1.52;;
41799;SDS011;27468;47.460;19.034;2023-03-31T16:24:48;2.70;;;1.70;;
41799;SDS011;27468;47.460;19.034;2023-03-31T16:27:14;2.65;;;1.80;;
41799;SDS011;27468;47.460;19.034;2023-03-31T16:29:40;4.13;;;2.08;;
41799;SDS011;27468;47.460;19.034;2023-03-31T16:32:10;3.55;;;1.80;;
41799;SDS011;27468;47.460;19.034;2023-03-31T16:34:57;4.70;;;1.95;;
41799;SDS011;27468;47.460;19.034;2023-03-31T16:37:26;3.10;;;1.70;;
41799;SDS011;27468;47.460;19.034;2023-03-31T16:39:52;3.45;;;1.83;;
41799;SDS011;27468;47.460;19.034;2023-03-31T16:42:17;3.10;;;1.70;;
41799;SDS011;27468;47.460;19.034;2023-03-31T16:44:44;5.63;;;2.33;;
41799;SDS011;27468;47.460;19.034;2023-03-31T16:47:12;4.75;;;2.15;;
41799;SDS011;27468;47.460;19.034;2023-03-31T16:49:38;4.13;;;2.20;;
41799;SDS011;27468;47.460;19.034;2023-03-31T16:52:04;3.97;;;2.03;;
41799;SDS011;27468;47.460;19.034;2023-03-31T16:54:30;3.70;;;1.80;;
41799;SDS011;27468;47.460;19.034;2023-03-31T16:56:56;2.00;;;1.70;;
41799;SDS011;27468;47.460;19.034;2023-03-31T16:59:22;2.95;;;1.70;;
41799;SDS011;27468;47.460;19.034;2023-03-31T17:01:48;2.67;;;1.67;;
41799;SDS011;27468;47.460;19.034;2023-03-31T17:04:14;2.10;;;1.77;;
41799;SDS011;27468;47.460;19.034;2023-03-31T17:06:40;3.97;;;1.73;;
41799;SDS011;27468;47.460;19.034;2023-03-31T17:09:06;3.83;;;2.10;;
41799;SDS011;27468;47.460;19.034;2023-03-31T17:11:31;3.15;;;1.70;;
41799;SDS011;27468;47.460;19.034;2023-03-31T17:13:57;4.13;;;2.00;;
41799;SDS011;27468;47.460;19.034;2023-03-31T17:16:24;4.93;;;2.28;;
41799;SDS011;27468;47.460;19.034;2023-03-31T17:18:49;3.35;;;1.98;;
41799;SDS011;27468;47.460;19.034;2023-03-31T17:21:15;4.40;;;2.10;;
41799;SDS011;27468;47.460;19.034;2023-03-31T17:23:44;4.03;;;1.95;;
41799;SDS011;27468;47.460;19.034;2023-03-31T17:26:11;4.00;;;2.22;;
41799;SDS011;27468;47.460;19.034;2023-03-31T17:28:37;4.80;;;2.22;;
41799;SDS011;27468;47.460;19.034;2023-03-31T17:31:10;4.90;;;2.30;;
41799;SDS011;27468;47.460;19.034;2023-03-31T17:33:36;4.70;;;2.25;;
41799;SDS011;27468;47.460;19.034;2023-03-31T17:36:01;4.63;;;2.40;;
41799;SDS011;27468;47.460;19.034;2023-03-31T17:38:27;4.22;;;2.13;;
41799;SDS011;27468;47.460;19.034;2023-03-31T17:40:54;3.90;;;2.25;;
41799;SDS011;27468;47.460;19.034;2023-03-31T17:43:19;6.72;;;2.53;;
41799;SDS011;27468;47.460;19.034;2023-03-31T17:45:45;4.82;;;2.42;;
41799;SDS011;27468;47.460;19.034;2023-03-31T17:48:11;5.63;;;2.70;;
41799;SDS011;27468;47.460;19.034;2023-03-31T17:50:37;3.83;;;2.20;;
41799;SDS011;27468;47.460;19.034;2023-03-31T17:53:02;4.07;;;2.50;;
41799;SDS011;27468;47.460;19.034;2023-03-31T17:55:33;4.97;;;2.30;;
41799;SDS011;27468;47.460;19.034;2023-03-31T17:58:00;4.55;;;2.33;;
41799;SDS011;27468;47.460;19.034;2023-03-31T18:00:25;4.28;;;2.00;;
41799;SDS011;27468;47.460;19.034;2023-03-31T18:02:50;5.95;;;2.53;;
41799;SDS011;27468;47.460;19.034;2023-03-31T18:05:16;5.70;;;2.75;;
41799;SDS011;27468;47.460;19.034;2023-03-31T18:07:43;4.63;;;2.75;;
41799;SDS011;27468;47.460;19.034;2023-03-31T18:10:09;6.45;;;2.85;;
41799;SDS011;27468;47.460;19.034;2023-03-31T18:12:34;4.45;;;2.45;;
41799;SDS011;27468;47.460;19.034;2023-03-31T18:15:01;6.35;;;2.85;;
41799;SDS011;27468;47.460;19.034;2023-03-31T18:17:29;5.68;;;3.00;;
41799;SDS011;27468;47.460;19.034;2023-03-31T18:19:55;7.68;;;3.28;;
41799;SDS011;27468;47.460;19.034;2023-03-31T18:22:20;6.50;;;3.05;;
41799;SDS011;27468;47.460;19.034;2023-03-31T18:24:46;6.68;;;2.80;;